Time;durP1;ratioP1;P1;durP2;ratioP2;P2;SDS_P1;SDS_P2;PMS_P1;PMS_P2;Temp;Humidity;BMP_temperature;BMP_pressure;BME280_temperature;BME280_humidity;BME280_pressure;Samples;Min_cycle;Max_cycle;Signal;HPM_P1;HPM_P2
2024/01/26 00:01:44;;;;;;;0.13;0.13;;;;;;;;;;5140811;27;20059;-78
2024/01/26 00:04:11;;;;;;;0.10;0.10;;;;;;;;;;5140049;27;20058;-78
2024/01/26 00:06:38;;;;;;;0.43;0.43;;;;;;;;;;5141784;27;20138;-78
2024/01/26 00:09:09;;;;;;;0.30;0.30;;;;;;;;;;5142796;27;20105;-78
2024/01/26 00:11:36;;;;;;;0.30;0.30;;;;;;;;;;5136408;27;20057;-78
2024/01/26 00:14:02;;;;;;;0.55;0.55;;;;;;;;;;5138518;27;20115;-78
2024/01/26 00:16:28;;;;;;;1.10;0.80;;;;;;;;;;5139081;27;20935;-77
2024/01/26 00:18:55;;;;;;;0.55;0.50;;;;;;;;;;5146094;27;20055;-78
2024/01/26 00:21:21;;;;;;;1.13;0.88;;;;;;;;;;5136368;27;20047;-78
2024/01/26 00:23:48;;;;;;;0.20;0.20;;;;;;;;;;5135332;27;20109;-78
2024/01/26 00:26:14;;;;;;;0.10;0.10;;;;;;;;;;5139019;27;20059;-78
2024/01/26 00:28:41;;;;;;;0.28;0.28;;;;;;;;;;5135164;27;20138;-78
2024/01/26 00:31:07;;;;;;;0.25;0.25;;;;;;;;;;5147075;27;20051;-78
2024/01/26 00:33:34;;;;;;;0.30;0.25;;;;;;;;;;5135440;27;20139;-78
2024/01/26 00:36:00;;;;;;;0.75;0.75;;;;;;;;;;5144026;27;20047;-78
2024/01/26 00:38:27;;;;;;;0.10;0.10;;;;;;;;;;5135251;27;20606;-77
2024/01/26 00:40:53;;;;;;;0.47;0.47;;;;;;;;;;5140675;27;20060;-77
2024/01/26 00:43:19;;;;;;;0.10;0.10;;;;;;;;;;5146724;27;20169;-77
2024/01/26 00:45:46;;;;;;;0.30;0.30;;;;;;;;;;5144869;27;20059;-78
2024/01/26 00:48:12;;;;;;;0.22;0.22;;;;;;;;;;5137387;27;20066;-77
2024/01/26 00:50:40;;;;;;;1.75;0.75;;;;;;;;;;5136081;27;20113;-78
2024/01/26 00:53:07;;;;;;;0.28;0.28;;;;;;;;;;5139190;27;20059;-78
2024/01/26 00:55:34;;;;;;;0.10;0.10;;;;;;;;;;5136983;27;20067;-78
2024/01/26 00:58:00;;;;;;;0.20;0.20;;;;;;;;;;5143096;27;20052;-78
2024/01/26 01:00:27;;;;;;;1.55;1.30;;;;;;;;;;5137768;27;20048;-77
2024/01/26 01:02:53;;;;;;;0.10;0.10;;;;;;;;;;5135101;27;20087;-77
2024/01/26 01:05:20;;;;;;;0.20;0.20;;;;;;;;;;5134198;27;20108;-78
2024/01/26 01:07:47;;;;;;;0.10;0.10;;;;;;;;;;5127971;27;20528;-77
2024/01/26 01:10:14;;;;;;;0.50;0.50;;;;;;;;;;5138733;27;20180;-77
2024/01/26 01:12:41;;;;;;;0.57;0.57;;;;;;;;;;5135421;27;20100;-77
2024/01/26 01:15:11;;;;;;;0.90;0.63;;;;;;;;;;5136129;27;20124;-78
2024/01/26 01:17:39;;;;;;;0.20;0.20;;;;;;;;;;5134516;27;20501;-77
2024/01/26 01:20:08;;;;;;;0.10;0.10;;;;;;;;;;5130822;27;20089;-77
2024/01/26 01:22:37;;;;;;;;;;;;;;;;;;5148549;27;20531;-77
2024/01/26 01:25:04;;;;;;;0.40;0.40;;;;;;;;;;5138332;27;44041;-78
2024/01/26 01:27:33;;;;;;;0.30;0.30;;;;;;;;;;5137853;27;20082;-77
2024/01/26 01:29:59;;;;;;;0.63;0.40;;;;;;;;;;5134079;27;20205;-78
2024/01/26 01:32:26;;;;;;;0.25;0.25;;;;;;;;;;5132628;27;20094;-78
2024/01/26 01:34:52;;;;;;;0.10;0.10;;;;;;;;;;5136018;27;20169;-78
2024/01/26 01:37:19;;;;;;;0.30;0.30;;;;;;;;;;5137980;27;20051;-77
2024/01/26 01:39:45;;;;;;;0.65;0.65;;;;;;;;;;5135398;27;20051;-77
2024/01/26 01:42:14;;;;;;;0.10;0.10;;;;;;;;;;5138296;27;20108;-78
2024/01/26 01:44:43;;;;;;;0.45;0.45;;;;;;;;;;5135023;27;20055;-77
2024/01/26 01:47:10;;;;;;;0.50;0.50;;;;;;;;;;5129025;27;20471;-78
2024/01/26 01:49:37;;;;;;;0.10;0.10;;;;;;;;;;5130179;27;20116;-78
2024/01/26 01:52:04;;;;;;;0.10;0.10;;;;;;;;;;5143943;27;20104;-77
2024/01/26 01:54:31;;;;;;;0.10;0.10;;;;;;;;;;5135926;27;20168;-77
2024/01/26 01:56:58;;;;;;;0.30;0.30;;;;;;;;;;5140548;27;20051;-78
2024/01/26 01:59:25;;;;;;;0.10;0.10;;;;;;;;;;5132289;27;20098;-79
2024/01/26 02:01:52;;;;;;;0.13;0.13;;;;;;;;;;5147616;27;20135;-77
2024/01/26 02:04:18;;;;;;;0.10;0.10;;;;;;;;;;5134465;27;20434;-77
2024/01/26 02:06:57;;;;;;;0.30;0.30;;;;;;;;;;5141296;27;20056;-77
2024/01/26 02:09:24;;;;;;;0.10;0.10;;;;;;;;;;5137572;27;20047;-77
2024/01/26 02:11:51;;;;;;;0.20;0.20;;;;;;;;;;5143548;27;20051;-77
2024/01/26 02:14:18;;;;;;;0.32;0.32;;;;;;;;;;5146203;27;20130;-77
2024/01/26 02:16:53;;;;;;;0.10;0.10;;;;;;;;;;5148672;27;20139;-77
2024/01/26 02:19:20;;;;;;;0.20;0.20;;;;;;;;;;5144503;27;20191;-77
2024/01/26 02:21:49;;;;;;;0.10;0.10;;;;;;;;;;5137832;27;20508;-77
2024/01/26 02:24:16;;;;;;;0.10;0.10;;;;;;;;;;5144910;27;20160;-78
2024/01/26 02:26:43;;;;;;;0.35;0.35;;;;;;;;;;5142490;27;20051;-77
2024/01/26 02:29:10;;;;;;;0.10;0.10;;;;;;;;;;5145901;27;20048;-77
2024/01/26 02:31:36;;;;;;;0.10;0.10;;;;;;;;;;5147159;27;20058;-77
2024/01/26 02:34:03;;;;;;;0.10;0.10;;;;;;;;;;5144143;27;20052;-77
2024/01/26 02:36:31;;;;;;;0.10;0.10;;;;;;;;;;5138133;27;20051;-77
2024/01/26 02:38:57;;;;;;;0.60;0.60;;;;;;;;;;5135427;27;20138;-77
2024/01/26 02:41:24;;;;;;;0.20;0.20;;;;;;;;;;5143981;27;20456;-77
2024/01/26 02:43:50;;;;;;;0.15;0.15;;;;;;;;;;5148145;27;20467;-77
2024/01/26 02:46:17;;;;;;;0.10;0.10;;;;;;;;;;5143406;27;20525;-77
2024/01/26 02:48:43;;;;;;;0.10;0.10;;;;;;;;;;5139509;27;20144;-77
2024/01/26 02:51:10;;;;;;;0.20;0.20;;;;;;;;;;5137320;27;20052;-76
2024/01/26 02:53:40;;;;;;;0.32;0.32;;;;;;;;;;5146171;27;20055;-77
2024/01/26 02:56:07;;;;;;;2.45;1.33;;;;;;;;;;5141953;27;20557;-77
2024/01/26 02:58:33;;;;;;;0.15;0.15;;;;;;;;;;5139021;27;20059;-77
2024/01/26 03:01:01;;;;;;;0.22;0.15;;;;;;;;;;5138750;27;20059;-77
2024/01/26 03:03:27;;;;;;;0.10;0.10;;;;;;;;;;5141043;27;20051;-77
2024/01/26 03:05:54;;;;;;;0.20;0.20;;;;;;;;;;5141495;27;20520;-77
2024/01/26 03:08:21;;;;;;;6.65;0.63;;;;;;;;;;5138328;27;20051;-77
2024/01/26 03:10:47;;;;;;;0.10;0.10;;;;;;;;;;5135223;27;20047;-77
2024/01/26 03:13:16;;;;;;;0.20;0.20;;;;;;;;;;5143944;27;20084;-77
2024/01/26 03:15:42;;;;;;;1.85;1.00;;;;;;;;;;5139973;27;20050;-77
2024/01/26 03:18:09;;;;;;;1.65;0.63;;;;;;;;;;5139799;27;20056;-77
2024/01/26 03:20:35;;;;;;;0.47;0.47;;;;;;;;;;5135238;27;20060;-77
2024/01/26 03:23:02;;;;;;;0.10;0.10;;;;;;;;;;5136606;27;20087;-78
2024/01/26 03:25:28;;;;;;;0.10;0.10;;;;;;;;;;5136507;27;20518;-77
2024/01/26 03:27:55;;;;;;;0.10;0.10;;;;;;;;;;5143335;27;20059;-77
2024/01/26 03:30:22;;;;;;;0.10;0.10;;;;;;;;;;5149377;27;20081;-77
2024/01/26 03:32:48;;;;;;;0.10;0.10;;;;;;;;;;5133453;27;20055;-77
2024/01/26 03:37:49;;;;;;;0.20;0.20;;;;;;;;;;5105096;27;20489;-78
2024/01/26 03:40:15;;;;;;;0.10;0.10;;;;;;;;;;5098411;28;20614;-79
2024/01/26 03:42:42;;;;;;;0.38;0.38;;;;;;;;;;5112816;27;20044;-78
2024/01/26 03:45:09;;;;;;;0.10;0.10;;;;;;;;;;5096893;28;20052;-79
2024/01/26 03:47:36;;;;;;;0.10;0.10;;;;;;;;;;5114094;28;20097;-79
2024/01/26 03:50:04;;;;;;;1.90;0.60;;;;;;;;;;5105913;27;20141;-79
2024/01/26 03:52:31;;;;;;;0.10;0.10;;;;;;;;;;5096275;28;20056;-79
2024/01/26 03:55:01;;;;;;;0.10;0.10;;;;;;;;;;5098071;28;20106;-79
2024/01/26 03:57:28;;;;;;;0.10;0.10;;;;;;;;;;5111028;28;20087;-79
2024/01/26 03:59:54;;;;;;;0.10;0.10;;;;;;;;;;5112166;28;20060;-79
2024/01/26 04:02:21;;;;;;;0.55;0.55;;;;;;;;;;5112913;28;21047;-79
2024/01/26 04:04:47;;;;;;;0.10;0.10;;;;;;;;;;5113916;28;20047;-79
2024/01/26 04:07:13;;;;;;;0.10;0.10;;;;;;;;;;5114002;28;20236;-79
2024/01/26 04:09:40;;;;;;;0.10;0.10;;;;;;;;;;5112844;28;20087;-78
2024/01/26 04:12:06;;;;;;;0.10;0.10;;;;;;;;;;5106673;27;20502;-79
2024/01/26 04:14:33;;;;;;;0.10;0.10;;;;;;;;;;5095219;28;20093;-79
2024/01/26 04:16:59;;;;;;;0.10;0.10;;;;;;;;;;5113092;28;20047;-79
2024/01/26 04:19:26;;;;;;;0.35;0.35;;;;;;;;;;5094842;28;20512;-79
2024/01/26 04:21:55;;;;;;;0.10;0.10;;;;;;;;;;5095650;28;20048;-79
2024/01/26 04:24:22;;;;;;;0.10;0.10;;;;;;;;;;5107023;28;20067;-79
2024/01/26 04:26:48;;;;;;;0.10;0.10;;;;;;;;;;5111154;28;20091;-79
2024/01/26 04:29:15;;;;;;;0.10;0.10;;;;;;;;;;5111706;28;20121;-79
2024/01/26 04:31:41;;;;;;;0.10;0.10;;;;;;;;;;5110836;28;20058;-80
2024/01/26 04:34:08;;;;;;;0.10;0.10;;;;;;;;;;5094211;28;20774;-79
2024/01/26 04:36:35;;;;;;;0.10;0.10;;;;;;;;;;5093227;28;20143;-80
2024/01/26 04:39:02;;;;;;;0.30;0.30;;;;;;;;;;5108540;28;20056;-80
2024/01/26 04:41:29;;;;;;;0.10;0.10;;;;;;;;;;5112361;28;20581;-79
2024/01/26 04:43:56;;;;;;;0.10;0.10;;;;;;;;;;5093053;28;20040;-79
2024/01/26 04:46:25;;;;;;;0.68;0.40;;;;;;;;;;5095937;28;20068;-80
2024/01/26 04:48:51;;;;;;;0.40;0.40;;;;;;;;;;5107030;28;20086;-79
2024/01/26 04:51:18;;;;;;;0.10;0.10;;;;;;;;;;5110827;27;20055;-79
2024/01/26 04:53:44;;;;;;;0.13;0.13;;;;;;;;;;5111568;28;20425;-80
2024/01/26 04:56:14;;;;;;;0.20;0.20;;;;;;;;;;5092448;28;20056;-80
2024/01/26 04:58:40;;;;;;;0.45;0.45;;;;;;;;;;5092617;28;20056;-79
2024/01/26 05:01:08;;;;;;;0.10;0.10;;;;;;;;;;5095586;28;20044;-79
2024/01/26 05:03:35;;;;;;;0.20;0.20;;;;;;;;;;5113255;28;20476;-80
2024/01/26 05:06:02;;;;;;;0.10;0.10;;;;;;;;;;5106786;28;20091;-80
2024/01/26 05:08:29;;;;;;;0.20;0.20;;;;;;;;;;5109319;28;20055;-78
2024/01/26 05:10:55;;;;;;;0.57;0.57;;;;;;;;;;5111165;28;20973;-78
2024/01/26 05:13:22;;;;;;;0.13;0.13;;;;;;;;;;5111384;27;20569;-79
2024/01/26 05:15:48;;;;;;;0.10;0.10;;;;;;;;;;5112567;28;20075;-79
2024/01/26 05:18:14;;;;;;;0.13;0.13;;;;;;;;;;5106780;28;20071;-79
2024/01/26 05:20:41;;;;;;;0.25;0.25;;;;;;;;;;5107208;28;20091;-78
2024/01/26 05:23:07;;;;;;;0.15;0.15;;;;;;;;;;5111519;28;20070;-79
2024/01/26 05:25:34;;;;;;;0.45;0.20;;;;;;;;;;5110622;28;20660;-79
2024/01/26 05:28:00;;;;;;;1.02;0.95;;;;;;;;;;5110985;28;20088;-80
2024/01/26 05:30:29;;;;;;;0.10;0.10;;;;;;;;;;5106193;28;20048;-79
2024/01/26 05:33:01;;;;;;;0.25;0.25;;;;;;;;;;5111118;28;20060;-79
2024/01/26 05:35:27;;;;;;;0.10;0.10;;;;;;;;;;5112255;28;20055;-78
2024/01/26 05:37:54;;;;;;;0.55;0.55;;;;;;;;;;5086785;28;20539;-78
2024/01/26 05:40:20;;;;;;;0.57;0.47;;;;;;;;;;5098079;28;20032;-79
2024/01/26 05:42:47;;;;;;;0.10;0.10;;;;;;;;;;5122120;28;20063;-79
2024/01/26 05:45:15;;;;;;;0.10;0.10;;;;;;;;;;5116269;28;20074;-78
2024/01/26 05:47:42;;;;;;;0.20;0.20;;;;;;;;;;5114226;28;20115;-79
2024/01/26 05:50:09;;;;;;;0.10;0.10;;;;;;;;;;5103024;28;20040;-80
2024/01/26 05:52:35;;;;;;;0.10;0.10;;;;;;;;;;5100516;28;20063;-80
2024/01/26 05:55:02;;;;;;;0.20;0.20;;;;;;;;;;5118165;28;20048;-80
2024/01/26 05:57:28;;;;;;;0.30;0.30;;;;;;;;;;5103104;28;20102;-80
2024/01/26 05:59:55;;;;;;;0.20;0.20;;;;;;;;;;5120005;28;20024;-80
2024/01/26 06:02:21;;;;;;;0.80;0.47;;;;;;;;;;5115920;27;20202;-80
2024/01/26 06:04:48;;;;;;;0.20;0.20;;;;;;;;;;5101343;28;20056;-80
2024/01/26 06:07:14;;;;;;;0.10;0.10;;;;;;;;;;5118463;27;20052;-80
2024/01/26 06:09:41;;;;;;;0.10;0.10;;;;;;;;;;5105661;28;20032;-80
2024/01/26 06:12:07;;;;;;;0.47;0.47;;;;;;;;;;5121277;27;20052;-80
2024/01/26 06:14:37;;;;;;;0.22;0.22;;;;;;;;;;5101928;28;20091;-80
2024/01/26 06:17:04;;;;;;;0.10;0.10;;;;;;;;;;5103353;28;20124;-80
2024/01/26 06:19:30;;;;;;;0.30;0.30;;;;;;;;;;5106029;28;20133;-80
2024/01/26 06:21:57;;;;;;;0.10;0.10;;;;;;;;;;5106980;28;20075;-80
2024/01/26 06:24:24;;;;;;;0.93;0.50;;;;;;;;;;5125317;27;20052;-80
2024/01/26 06:26:52;;;;;;;0.13;0.13;;;;;;;;;;5104436;28;20087;-80
2024/01/26 06:29:19;;;;;;;1.17;0.50;;;;;;;;;;5124976;28;20540;-80
2024/01/26 06:31:45;;;;;;;0.10;0.10;;;;;;;;;;5109522;28;20067;-80
2024/01/26 06:34:12;;;;;;;0.10;0.10;;;;;;;;;;5126897;28;20059;-80
2024/01/26 06:36:39;;;;;;;0.20;0.20;;;;;;;;;;5124594;28;20112;-80
2024/01/26 06:39:05;;;;;;;2.10;0.95;;;;;;;;;;5124978;28;20056;-80
2024/01/26 06:41:40;;;;;;;0.47;0.47;;;;;;;;;;5127655;28;20040;-79
2024/01/26 06:44:07;;;;;;;0.10;0.10;;;;;;;;;;5124670;28;20086;-80
2024/01/26 06:46:34;;;;;;;0.30;0.30;;;;;;;;;;5105391;28;20040;-79
2024/01/26 06:49:02;;;;;;;0.10;0.10;;;;;;;;;;5107043;28;20056;-79
2024/01/26 06:51:28;;;;;;;0.25;0.20;;;;;;;;;;5109442;27;20078;-79
2024/01/26 06:53:56;;;;;;;0.38;0.38;;;;;;;;;;5126774;28;20048;-79
2024/01/26 06:56:23;;;;;;;0.15;0.15;;;;;;;;;;5111060;28;20142;-80
2024/01/26 06:58:49;;;;;;;0.10;0.10;;;;;;;;;;5125809;28;20044;-79
2024/01/26 07:01:16;;;;;;;0.10;0.10;;;;;;;;;;5126029;27;20049;-80
2024/01/26 07:03:42;;;;;;;0.10;0.10;;;;;;;;;;5107711;28;20051;-79
2024/01/26 07:06:09;;;;;;;0.80;0.70;;;;;;;;;;5121295;27;20059;-80
2024/01/26 07:08:35;;;;;;;0.10;0.10;;;;;;;;;;5105379;28;20520;-79
2024/01/26 07:11:07;;;;;;;0.20;0.20;;;;;;;;;;5107501;28;20052;-80
2024/01/26 07:13:34;;;;;;;0.20;0.20;;;;;;;;;;5105209;27;20134;-79
2024/01/26 07:16:00;;;;;;;0.10;0.10;;;;;;;;;;5118572;27;20047;-79
2024/01/26 07:18:27;;;;;;;0.20;0.20;;;;;;;;;;5117896;28;20040;-79
2024/01/26 07:20:54;;;;;;;0.30;0.30;;;;;;;;;;5087574;27;20071;-79
2024/01/26 07:23:20;;;;;;;0.10;0.10;;;;;;;;;;5095117;28;20058;-79
2024/01/26 07:25:46;;;;;;;0.20;0.20;;;;;;;;;;5100873;27;20060;-79
2024/01/26 07:28:13;;;;;;;0.65;0.57;;;;;;;;;;5122243;27;20058;-79
2024/01/26 07:30:39;;;;;;;0.32;0.32;;;;;;;;;;5102992;27;20055;-80
2024/01/26 07:33:06;;;;;;;0.10;0.10;;;;;;;;;;5122809;27;20063;-80
2024/01/26 07:35:33;;;;;;;0.30;0.30;;;;;;;;;;5119357;27;20058;-80
2024/01/26 07:37:59;;;;;;;0.10;0.10;;;;;;;;;;5128383;27;20051;-79
2024/01/26 07:40:26;;;;;;;0.10;0.10;;;;;;;;;;5121644;27;20040;-80
2024/01/26 07:42:55;;;;;;;0.63;0.45;;;;;;;;;;5118703;27;20052;-80
2024/01/26 07:45:21;;;;;;;0.10;0.10;;;;;;;;;;5128741;27;20455;-79
2024/01/26 07:47:48;;;;;;;0.10;0.10;;;;;;;;;;5130795;27;20043;-80
2024/01/26 07:50:14;;;;;;;0.20;0.20;;;;;;;;;;5121972;27;20070;-80
2024/01/26 07:52:44;;;;;;;0.15;0.15;;;;;;;;;;5112754;27;20454;-78
2024/01/26 07:55:10;;;;;;;0.10;0.10;;;;;;;;;;5114580;27;20067;-79
2024/01/26 07:57:37;;;;;;;0.38;0.38;;;;;;;;;;5127657;27;20058;-79
2024/01/26 08:00:05;;;;;;;0.10;0.10;;;;;;;;;;5123844;27;20167;-79
2024/01/26 08:02:31;;;;;;;0.38;0.38;;;;;;;;;;5107634;28;20066;-80
2024/01/26 08:04:58;;;;;;;0.10;0.10;;;;;;;;;;5119977;27;20037;-79
2024/01/26 08:07:25;;;;;;;0.55;0.55;;;;;;;;;;5100784;27;21916;-79
2024/01/26 08:09:51;;;;;;;0.38;0.35;;;;;;;;;;5122032;27;20047;-80
2024/01/26 08:12:18;;;;;;;0.10;0.10;;;;;;;;;;5117125;27;20066;-79
2024/01/26 08:15:03;;;;;;;0.10;0.10;;;;;;;;;;5102467;27;20056;-80
2024/01/26 08:17:30;;;;;;;0.30;0.30;;;;;;;;;;5129786;27;20043;-80
2024/01/26 08:19:58;;;;;;;0.10;0.10;;;;;;;;;;5119847;27;20082;-80
2024/01/26 08:22:25;;;;;;;0.40;0.40;;;;;;;;;;5104596;28;20048;-79
2024/01/26 08:24:51;;;;;;;0.10;0.10;;;;;;;;;;5102895;27;20142;-80
2024/01/26 08:27:18;;;;;;;1.30;0.88;;;;;;;;;;5109285;28;20095;-80
2024/01/26 08:29:45;;;;;;;0.10;0.10;;;;;;;;;;5122645;27;20137;-80
2024/01/26 08:32:11;;;;;;;0.28;0.28;;;;;;;;;;5105597;28;20056;-80
2024/01/26 08:34:38;;;;;;;0.17;0.17;;;;;;;;;;5124643;27;20070;-79
2024/01/26 08:37:05;;;;;;;0.40;0.35;;;;;;;;;;5131352;27;20603;-80
2024/01/26 08:39:31;;;;;;;0.10;0.10;;;;;;;;;;5122325;27;20052;-80
2024/01/26 08:41:57;;;;;;;0.10;0.10;;;;;;;;;;5131419;27;20044;-80
2024/01/26 08:44:24;;;;;;;0.20;0.20;;;;;;;;;;5122079;28;20055;-80
2024/01/26 08:46:50;;;;;;;0.73;0.73;;;;;;;;;;5120482;27;20899;-81
2024/01/26 08:49:20;;;;;;;0.10;0.10;;;;;;;;;;5135913;27;20888;-81
2024/01/26 08:51:47;;;;;;;0.25;0.25;;;;;;;;;;5122472;27;20092;-81
2024/01/26 08:54:13;;;;;;;0.30;0.30;;;;;;;;;;5122484;27;20066;-80
2024/01/26 08:56:41;;;;;;;0.52;0.52;;;;;;;;;;5106735;28;20129;-81
2024/01/26 08:59:08;;;;;;;0.10;0.10;;;;;;;;;;5102426;28;20063;-80
2024/01/26 09:01:36;;;;;;;0.10;0.10;;;;;;;;;;5104554;28;20074;-81
2024/01/26 09:04:05;;;;;;;0.20;0.20;;;;;;;;;;5122028;27;20120;-81
2024/01/26 09:06:32;;;;;;;0.10;0.10;;;;;;;;;;5123963;27;20059;-81
2024/01/26 09:08:58;;;;;;;0.10;0.10;;;;;;;;;;5120964;27;20052;-81
2024/01/26 09:11:25;;;;;;;0.40;0.40;;;;;;;;;;5120933;27;20048;-81
2024/01/26 09:13:51;;;;;;;0.20;0.20;;;;;;;;;;5125248;27;20070;-81
2024/01/26 09:16:19;;;;;;;0.25;0.25;;;;;;;;;;5106072;28;20147;-82
2024/01/26 09:18:45;;;;;;;0.10;0.10;;;;;;;;;;5123206;27;20137;-82
2024/01/26 09:21:13;;;;;;;0.10;0.10;;;;;;;;;;5124072;27;20056;-81
2024/01/26 09:23:45;;;;;;;0.90;0.75;;;;;;;;;;5124469;27;20112;-81
2024/01/26 09:26:55;;;;;;;0.10;0.10;;;;;;;;;;5116752;27;20769;-81
2024/01/26 09:29:39;;;;;;;0.10;0.10;;;;;;;;;;5103006;28;20110;-81
2024/01/26 09:32:05;;;;;;;0.10;0.10;;;;;;;;;;5124284;27;20036;-82
2024/01/26 09:34:32;;;;;;;0.10;0.10;;;;;;;;;;5109832;27;20070;-81
2024/01/26 09:36:59;;;;;;;0.10;0.10;;;;;;;;;;5102321;27;20052;-81
2024/01/26 09:39:25;;;;;;;0.30;0.30;;;;;;;;;;5125290;27;20048;-80
2024/01/26 09:41:52;;;;;;;0.10;0.10;;;;;;;;;;5125918;27;20052;-81
2024/01/26 09:44:19;;;;;;;0.10;0.10;;;;;;;;;;5108157;27;20066;-82
2024/01/26 09:46:45;;;;;;;0.10;0.10;;;;;;;;;;5111163;27;20063;-80
2024/01/26 09:49:12;;;;;;;0.10;0.10;;;;;;;;;;5128838;27;20044;-80
2024/01/26 09:51:40;;;;;;;0.05;0.05;;;;;;;;;;5125915;27;20048;-81
2024/01/26 09:54:11;;;;;;;0.32;0.32;;;;;;;;;;5109437;27;20051;-80
2024/01/26 09:56:38;;;;;;;;;;;;;;;;;;5101468;28;20085;-81
2024/01/26 09:59:05;;;;;;;0.10;0.10;;;;;;;;;;5113058;27;46262;-81
2024/01/26 10:01:32;;;;;;;0.10;0.10;;;;;;;;;;5105437;28;20112;-81
2024/01/26 10:03:59;;;;;;;0.10;0.10;;;;;;;;;;5115661;27;20052;-80
2024/01/26 10:06:26;;;;;;;0.10;0.10;;;;;;;;;;5124330;27;20044;-82
2024/01/26 10:08:53;;;;;;;0.10;0.10;;;;;;;;;;5108453;27;20042;-80
2024/01/26 10:11:19;;;;;;;0.10;0.10;;;;;;;;;;5122204;27;20052;-81
2024/01/26 10:13:45;;;;;;;0.10;0.10;;;;;;;;;;5101859;28;20075;-82
2024/01/26 10:16:12;;;;;;;0.10;0.10;;;;;;;;;;5133039;27;20063;-81
2024/01/26 10:18:42;;;;;;;0.10;0.10;;;;;;;;;;5121672;27;20056;-82
2024/01/26 10:21:13;;;;;;;0.10;0.10;;;;;;;;;;5127360;27;20044;-81
2024/01/26 10:23:40;;;;;;;0.10;0.10;;;;;;;;;;5103784;27;20054;-82
2024/01/26 10:26:10;;;;;;;0.10;0.10;;;;;;;;;;5107911;27;20067;-82
2024/01/26 10:28:37;;;;;;;0.10;0.10;;;;;;;;;;5123933;27;20051;-82
2024/01/26 10:31:04;;;;;;;0.10;0.10;;;;;;;;;;5117792;27;20052;-81
2024/01/26 10:33:31;;;;;;;0.10;0.10;;;;;;;;;;5125312;27;20052;-82
2024/01/26 10:36:00;;;;;;;0.10;0.10;;;;;;;;;;5103600;27;20106;-81
2024/01/26 10:38:31;;;;;;;0.10;0.10;;;;;;;;;;5107024;28;20098;-81
2024/01/26 10:41:00;;;;;;;0.10;0.10;;;;;;;;;;5126842;27;20045;-81
2024/01/26 10:43:27;;;;;;;0.10;0.10;;;;;;;;;;5119652;27;20066;-82
2024/01/26 10:45:55;;;;;;;0.10;0.10;;;;;;;;;;5104353;27;20040;-81
2024/01/26 10:48:21;;;;;;;0.10;0.10;;;;;;;;;;5103225;28;20390;-81
2024/01/26 10:50:48;;;;;;;0.10;0.10;;;;;;;;;;5104531;28;20048;-81
2024/01/26 10:53:17;;;;;;;0.10;0.10;;;;;;;;;;5124694;27;20127;-81
2024/01/26 10:55:44;;;;;;;0.10;0.10;;;;;;;;;;5123876;27;20055;-81
2024/01/26 10:58:10;;;;;;;0.10;0.10;;;;;;;;;;5123056;22;20126;-79
2024/01/26 11:00:37;;;;;;;0.10;0.10;;;;;;;;;;5130037;27;20047;-80
2024/01/26 11:03:04;;;;;;;0.10;0.10;;;;;;;;;;5140366;27;20062;-80
2024/01/26 11:05:30;;;;;;;0.10;0.10;;;;;;;;;;5146118;27;20047;-80
2024/01/26 11:08:00;;;;;;;0.10;0.10;;;;;;;;;;5147629;27;20087;-80
2024/01/26 11:10:28;;;;;;;0.10;0.10;;;;;;;;;;5149076;27;20055;-79
2024/01/26 11:12:59;;;;;;;0.10;0.10;;;;;;;;;;5148797;27;20351;-79
2024/01/26 11:15:25;;;;;;;0.10;0.10;;;;;;;;;;5157047;27;20051;-79
2024/01/26 11:17:53;;;;;;;0.10;0.10;;;;;;;;;;5149087;27;20130;-79
2024/01/26 11:20:30;;;;;;;0.10;0.10;;;;;;;;;;5143790;27;20906;-79
2024/01/26 11:23:00;;;;;;;0.10;0.10;;;;;;;;;;5150094;27;20146;-79
2024/01/26 11:25:32;;;;;;;0.10;0.10;;;;;;;;;;5140533;27;20059;-79
2024/01/26 11:27:59;;;;;;;0.10;0.10;;;;;;;;;;5143459;27;20136;-79
2024/01/26 11:30:26;;;;;;;0.10;0.10;;;;;;;;;;5135243;27;20047;-79
2024/01/26 11:32:53;;;;;;;1.88;0.85;;;;;;;;;;5149507;27;20072;-79
2024/01/26 11:35:20;;;;;;;0.10;0.10;;;;;;;;;;5144670;27;20051;-79
2024/01/26 11:37:48;;;;;;;0.10;0.10;;;;;;;;;;5142911;27;20452;-79
2024/01/26 11:40:16;;;;;;;0.20;0.20;;;;;;;;;;5144518;27;20047;-79
2024/01/26 11:42:42;;;;;;;0.30;0.30;;;;;;;;;;5143424;27;20055;-79
2024/01/26 11:45:12;;;;;;;2.72;1.15;;;;;;;;;;5148884;27;20112;-79
2024/01/26 11:47:40;;;;;;;0.10;0.10;;;;;;;;;;5149510;27;20063;-79
2024/01/26 11:50:08;;;;;;;0.10;0.10;;;;;;;;;;5121875;27;20051;-79
2024/01/26 11:52:35;;;;;;;0.10;0.10;;;;;;;;;;5143924;27;20047;-79
2024/01/26 11:55:02;;;;;;;0.15;0.15;;;;;;;;;;5148052;27;20145;-79
2024/01/26 11:57:30;;;;;;;0.10;0.10;;;;;;;;;;5126416;27;20974;-79
2024/01/26 11:59:59;;;;;;;0.65;0.65;;;;;;;;;;5147138;27;20051;-78
2024/01/26 12:02:26;;;;;;;0.10;0.10;;;;;;;;;;5146733;27;20057;-79
2024/01/26 12:04:53;;;;;;;0.10;0.10;;;;;;;;;;5143825;27;20043;-78
2024/01/26 12:07:20;;;;;;;0.43;0.43;;;;;;;;;;5130567;27;20051;-79
2024/01/26 12:09:46;;;;;;;0.10;0.10;;;;;;;;;;5142858;27;20051;-78
2024/01/26 12:12:13;;;;;;;0.10;0.10;;;;;;;;;;5145363;27;20100;-78
2024/01/26 12:14:39;;;;;;;0.10;0.10;;;;;;;;;;5148091;27;20086;-79
2024/01/26 12:17:06;;;;;;;0.10;0.10;;;;;;;;;;5147378;27;20050;-79
2024/01/26 12:19:33;;;;;;;0.10;0.10;;;;;;;;;;5144045;27;20047;-78
2024/01/26 12:21:59;;;;;;;0.10;0.10;;;;;;;;;;5131994;27;20568;-78
2024/01/26 12:24:27;;;;;;;0.10;0.10;;;;;;;;;;5148111;27;20059;-79
2024/01/26 12:26:55;;;;;;;0.10;0.10;;;;;;;;;;5144897;27;20051;-78
2024/01/26 12:29:21;;;;;;;0.35;0.35;;;;;;;;;;5142565;27;20410;-77
2024/01/26 12:31:50;;;;;;;0.10;0.10;;;;;;;;;;5143011;27;20052;-78
2024/01/26 12:34:17;;;;;;;0.30;0.30;;;;;;;;;;5144860;27;20059;-78
2024/01/26 12:36:43;;;;;;;6.03;2.17;;;;;;;;;;5145378;27;20459;-78
2024/01/26 12:39:10;;;;;;;0.45;0.30;;;;;;;;;;5126297;27;20128;-78
2024/01/26 12:41:37;;;;;;;0.10;0.10;;;;;;;;;;5124543;27;20100;-78
2024/01/26 12:44:04;;;;;;;0.10;0.10;;;;;;;;;;5144096;27;20051;-78
2024/01/26 12:46:30;;;;;;;0.10;0.10;;;;;;;;;;5148871;27;20120;-78
2024/01/26 12:48:57;;;;;;;0.10;0.10;;;;;;;;;;5146843;27;20062;-77
2024/01/26 12:51:24;;;;;;;0.10;0.10;;;;;;;;;;5145736;27;20054;-78
2024/01/26 12:53:50;;;;;;;0.10;0.10;;;;;;;;;;5148101;27;20062;-78
2024/01/26 12:56:17;;;;;;;0.10;0.10;;;;;;;;;;5143919;27;20053;-78
2024/01/26 12:58:43;;;;;;;0.10;0.10;;;;;;;;;;5125083;27;20144;-78
2024/01/26 13:01:10;;;;;;;9.13;0.95;;;;;;;;;;5145298;27;20509;-78
2024/01/26 13:03:36;;;;;;;0.10;0.10;;;;;;;;;;5142589;27;20058;-78
2024/01/26 13:06:03;;;;;;;0.10;0.10;;;;;;;;;;5144466;27;20045;-78
2024/01/26 13:08:30;;;;;;;0.10;0.10;;;;;;;;;;5144558;27;20051;-78
2024/01/26 13:10:56;;;;;;;0.10;0.10;;;;;;;;;;5147336;27;20075;-78
2024/01/26 13:13:24;;;;;;;0.10;0.10;;;;;;;;;;5146457;27;20047;-78
2024/01/26 13:15:51;;;;;;;0.10;0.10;;;;;;;;;;5143754;27;20497;-78
2024/01/26 13:18:18;;;;;;;0.10;0.10;;;;;;;;;;5146074;27;20230;-78
2024/01/26 13:20:53;;;;;;;0.10;0.10;;;;;;;;;;5145203;27;20870;-78
2024/01/26 13:23:20;;;;;;;0.10;0.10;;;;;;;;;;5126933;27;20052;-78
2024/01/26 13:25:51;;;;;;;0.10;0.10;;;;;;;;;;5138922;27;20075;-77
2024/01/26 13:28:18;;;;;;;0.10;0.10;;;;;;;;;;5143461;27;20051;-78
2024/01/26 13:30:46;;;;;;;0.10;0.10;;;;;;;;;;5142956;27;20138;-78
2024/01/26 13:33:13;;;;;;;0.10;0.10;;;;;;;;;;5146165;27;20082;-78
2024/01/26 13:35:39;;;;;;;0.30;0.30;;;;;;;;;;5143715;27;20052;-77
2024/01/26 13:38:06;;;;;;;0.10;0.10;;;;;;;;;;5144790;27;20074;-77
2024/01/26 13:40:32;;;;;;;0.10;0.10;;;;;;;;;;5143843;27;20100;-77
2024/01/26 13:43:00;;;;;;;0.10;0.10;;;;;;;;;;5144121;27;20512;-77
2024/01/26 13:45:27;;;;;;;0.10;0.10;;;;;;;;;;5141264;27;20534;-77
2024/01/26 13:47:53;;;;;;;0.10;0.10;;;;;;;;;;5146506;27;20134;-77
2024/01/26 13:50:29;;;;;;;0.10;0.10;;;;;;;;;;5146467;27;20120;-77
2024/01/26 13:52:55;;;;;;;0.10;0.10;;;;;;;;;;5144634;27;20047;-77
2024/01/26 13:55:21;;;;;;;1.85;1.65;;;;;;;;;;5144503;27;20047;-78
2024/01/26 13:57:48;;;;;;;0.10;0.10;;;;;;;;;;5142632;27;20130;-78
2024/01/26 14:00:15;;;;;;;0.10;0.10;;;;;;;;;;5143306;27;20136;-78
2024/01/26 14:02:48;;;;;;;0.10;0.10;;;;;;;;;;5148614;27;20059;-78
2024/01/26 14:05:14;;;;;;;0.10;0.10;;;;;;;;;;5141377;27;20043;-78
2024/01/26 14:07:41;;;;;;;0.10;0.10;;;;;;;;;;5141941;27;20084;-78
2024/01/26 14:10:11;;;;;;;0.10;0.10;;;;;;;;;;5148972;27;20645;-78
2024/01/26 14:12:38;;;;;;;0.10;0.10;;;;;;;;;;5146535;27;20054;-78
2024/01/26 14:15:04;;;;;;;0.10;0.10;;;;;;;;;;5121257;27;20270;-78
2024/01/26 14:17:31;;;;;;;0.10;0.10;;;;;;;;;;5142518;27;20134;-78
2024/01/26 14:19:58;;;;;;;0.10;0.10;;;;;;;;;;5129477;27;20059;-77
2024/01/26 14:22:24;;;;;;;0.10;0.10;;;;;;;;;;5146880;27;20535;-77
2024/01/26 14:24:51;;;;;;;1.25;0.88;;;;;;;;;;5146340;27;20047;-78
2024/01/26 14:27:19;;;;;;;0.10;0.10;;;;;;;;;;5145725;27;20055;-77
2024/01/26 14:29:46;;;;;;;0.10;0.10;;;;;;;;;;5139458;27;20055;-78
2024/01/26 14:32:12;;;;;;;0.10;0.10;;;;;;;;;;5138751;27;20047;-77
2024/01/26 14:34:41;;;;;;;0.10;0.10;;;;;;;;;;5143458;27;20051;-77
2024/01/26 14:37:08;;;;;;;0.10;0.10;;;;;;;;;;5148535;27;20131;-77
2024/01/26 14:39:38;;;;;;;0.10;0.10;;;;;;;;;;5142402;27;20116;-78
2024/01/26 14:42:04;;;;;;;0.35;0.35;;;;;;;;;;5144745;27;20534;-77
2024/01/26 14:44:31;;;;;;;0.10;0.10;;;;;;;;;;5137220;27;20775;-78
2024/01/26 14:46:58;;;;;;;0.10;0.10;;;;;;;;;;5143320;27;20594;-77